< Cyclone 202107 2021 Season Cyclone 202110 >
Cyclone 202108 (noname)
General InformationTrack Information on Google MapsDetailed Wind Information || ResourceGoogle EarthGE AnimationAtom FeedGeoJSON
Year Month Day Hour Lat. Long. Pressure (hPa) Wind (kt) Class Image Chart
2021 1 18 00 -10.8 132.5 1004 15 2 Image --
2021 1 18 06 -10.6 131.3 1003 15 2 Image --
2021 1 18 12 -10.6 129.7 1004 15 2 Image --
2021 1 18 18 -10.7 128.6 1002 15 2 Image --
2021 1 19 00 -10.7 127.6 1003 20 2 Image --
2021 1 19 06 -10.7 126.5 1001 20 2 Image --
2021 1 19 12 -11.1 125.6 1000 20 2 Image --
2021 1 19 18 -11.7 124.8 1002 25 2 Image --
2021 1 20 00 -12.3 123.6 1000 25 2 Image --
2021 1 20 06 -12.8 122.8 1000 25 2 Image --
2021 1 20 12 -13.7 121.5 1000 30 2 Image --
2021 1 20 18 -14.5 120.7 998 30 2 Image --
2021 1 21 00 -14.9 120.3 998 35 3 Image --
2021 1 21 06 -15.7 119.9 996 35 3 Image --
2021 1 21 12 -16.5 119.8 996 35 3 Image --
2021 1 21 18 -17.4 119.8 994 35 3 Image --
2021 1 22 00 -18.2 119.9 992 35 3 Image --
2021 1 22 06 -19.4 120.5 992 30 2 Image --
2021 1 22 12 -20.5 121.1 994 25 2 Image --
2021 1 22 18 -21.4 122.1 996 20 2 Image --
2021 1 23 00 -22.2 123.2 998 15 2 Image --
2021 1 23 06 -23.1 124.0 998 15 2 Image --
< Cyclone 202107 2021 Season Cyclone 202110 >

Help